Date,TemperatureHighF,TemperatureAvgF,TemperatureLowF,DewpointHighF,DewpointAvgF,DewpointLowF,HumidityHigh,HumidityAvg,HumidityLow,PressureMaxIn,PressureMinIn,WindSpeedMaxMPH,WindSpeedAvgMPH,GustSpeedMaxMPH,PrecipitationSumIn
2013-5-1,58,53,48,50,47,42,89,80,67,30.49,30.44,8,3,10,0.00
2013-5-2,62,59,48,50,46,35,91,64,37,30.47,30.35,11,4,16,0.00
2013-5-3,63,55,49,49,46,41,93,73,53,30.48,30.36,10,5,25,0.00
2013-5-4,58,53,49,48,45,43,82,76,62,30.37,30.26,12,8,18,0.00
2013-5-5,54,51,47,48,46,43,92,83,69,30.30,30.25,10,5,14,0.00
2013-5-6,55,50,46,50,47,44,99,89,81,30.30,30.18,7,2,9,0.00
2013-5-7,58,56,48,57,54,48,99,94,87,30.20,30.14,0,0,0,0.00
2013-5-8,63,58,55,61,57,55,100,97,93,30.15,30.05,12,4,22,0.01
2013-5-9,62,57,54,62,57,54,100,100,96,30.04,29.87,6,2,10,0.40
2013-5-10,70,62,54,61,57,53,100,83,65,29.99,29.93,7,4,13,0.04
2013-5-11,64,59,58,60,59,57,100,98,87,29.85,29.72,13,4,17,0.51
2013-5-12,68,60,54,59,49,32,100,68,33,29.86,29.63,12,5,22,0.01
2013-5-13,55,53,50,41,36,29,60,53,38,30.04,29.86,13,8,20,0.00
2013-5-14,57,53,48,46,39,28,81,61,36,30.08,30.01,11,5,14,0.00
2013-5-15,59,56,50,53,50,45,89,79,68,30.09,29.86,12,7,17,0.01
2013-5-16,61,59,54,57,56,54,97,89,85,29.78,29.76,4,3,9,0.00
2013-5-17,70,64,57,51,47,44,80,55,42,30.15,30.01,9,5,15,0.00
2013-5-18,66,60,54,55,53,50,90,78,63,30.32,30.28,10,5,13,0.00
2013-5-19,56,55,54,56,55,52,100,100,91,30.32,30.23,9,4,9,0.24
2013-5-20,70,63,56,66,61,56,100,95,84,30.22,29.96,11,5,12,0.06
2013-5-21,74,66,58,69,64,57,100,91,76,29.96,29.86,8,4,10,0.01
2013-5-22,65,61,56,62,59,55,99,95,86,29.95,29.89,5,2,6,0.00
2013-5-23,69,63,58,66,62,58,100,97,89,29.95,29.84,15,6,18,0.27
2013-5-24,61,57,50,61,54,48,100,89,80,29.83,29.73,8,4,12,0.24
2013-5-25,52,48,45,49,45,41,98,90,85,29.83,29.75,9,6,23,0.04
2013-5-26,60,55,45,48,44,41,87,67,53,30.16,29.82,13,6,24,0.01
2013-5-27,65,60,50,51,49,44,82,68,52,30.20,30.11,11,6,19,0.00
2013-5-28,65,60,54,57,54,48,99,82,60,30.24,30.17,12,3,12,0.02
2013-5-29,70,63,57,66,61,56,98,93,84,30.18,30.02,7,2,9,0.13
2013-5-30,82,74,65,70,67,63,94,78,66,30.11,30.05,6,3,10,0.00
2013-5-31,82,75,69,71,66,64,85,75,64,30.11,30.00,9,4,14,0.00